Time;durP1;ratioP1;P1;durP2;ratioP2;P2;SDS_P1;SDS_P2;PMS_P1;PMS_P2;Temp;Humidity;BMP_temperature;BMP_pressure;BME280_temperature;BME280_humidity;BME280_pressure;Samples;Min_cycle;Max_cycle;Signal;HPM_P1;HPM_P2
2022/04/26 03:37:12;;;;;;;17.73;11.48;;;;;;;8.08;100.00;96229.13;4931330;29;20070;-67
2022/04/26 03:39:38;;;;;;;13.20;9.82;;;;;;;8.12;100.00;96230.78;4934475;29;20044;-67
2022/04/26 03:42:04;;;;;;;13.82;9.48;;;;;;;8.18;100.00;96232.06;4934454;29;20047;-66
2022/04/26 03:44:30;;;;;;;12.55;8.98;;;;;;;8.23;100.00;96222.81;4935216;29;20035;-68
2022/04/26 03:46:55;;;;;;;13.02;9.75;;;;;;;8.20;100.00;96218.06;4934608;29;20027;-66
2022/04/26 03:49:21;;;;;;;21.20;11.02;;;;;;;8.16;100.00;96226.19;4935209;29;20047;-67
2022/04/26 03:51:47;;;;;;;15.63;9.52;;;;;;;8.23;100.00;96236.44;4933105;29;20501;-68
2022/04/26 03:54:12;;;;;;;18.65;9.38;;;;;;;8.14;100.00;96233.13;4932989;29;20062;-67
2022/04/26 03:56:38;;;;;;;14.23;9.73;;;;;;;8.02;100.00;96229.44;4933871;29;20075;-67
2022/04/26 03:59:03;;;;;;;14.35;9.80;;;;;;;8.13;100.00;96235.09;4934193;29;20585;-68
2022/04/26 04:01:28;;;;;;;12.98;9.43;;;;;;;8.17;100.00;96235.94;4933482;29;20035;-67
2022/04/26 04:03:55;;;;;;;12.75;8.80;;;;;;;8.16;100.00;96239.03;4917610;29;20027;-68
2022/04/26 04:06:21;;;;;;;12.82;9.35;;;;;;;8.20;100.00;96229.75;4933865;29;20040;-68
2022/04/26 04:08:46;;;;;;;12.68;8.80;;;;;;;8.28;100.00;96236.13;4934260;29;20136;-67
2022/04/26 04:11:11;;;;;;;12.10;9.20;;;;;;;8.39;100.00;96239.84;4934350;29;20032;-67
2022/04/26 04:13:37;;;;;;;11.40;8.48;;;;;;;8.39;100.00;96236.31;4932835;29;20027;-67
2022/04/26 04:16:02;;;;;;;15.50;9.13;;;;;;;8.46;100.00;96236.47;4933442;29;20035;-66
2022/04/26 04:21:12;;;;;;;12.88;9.13;;;;;;;8.36;100.00;96242.50;4953396;29;20043;-67
2022/04/26 04:23:38;;;;;;;13.32;9.48;;;;;;;8.24;100.00;96246.19;4965847;29;20031;-66
2022/04/26 04:26:04;;;;;;;12.95;9.18;;;;;;;8.19;100.00;96246.47;4933898;29;20032;-66
2022/04/26 04:28:31;;;;;;;11.50;8.77;;;;;;;8.27;100.00;96245.47;4933971;29;20145;-66
2022/04/26 04:30:57;;;;;;;13.13;8.60;;;;;;;8.29;100.00;96242.38;4933830;29;20031;-66
2022/04/26 04:33:22;;;;;;;13.00;9.07;;;;;;;8.26;100.00;96246.63;4935316;29;20536;-67
2022/04/26 04:35:48;;;;;;;13.07;8.80;;;;;;;8.18;100.00;96253.09;4933336;29;20540;-66
2022/04/26 04:38:13;;;;;;;11.25;8.50;;;;;;;8.20;100.00;96258.97;4934474;29;20496;-67
2022/04/26 04:40:38;;;;;;;14.02;8.48;;;;;;;8.22;100.00;96257.47;4917184;29;20106;-68
2022/04/26 04:43:04;;;;;;;12.55;8.50;;;;;;;8.32;100.00;96263.47;4934054;29;20038;-66
2022/04/26 04:45:30;;;;;;;14.27;8.85;;;;;;;8.36;100.00;96265.13;4933165;29;20134;-65
2022/04/26 04:47:55;;;;;;;10.13;7.78;;;;;;;8.29;100.00;96269.66;4934003;29;20027;-67
2022/04/26 04:50:21;;;;;;;12.77;8.52;;;;;;;8.29;100.00;96258.75;4934277;29;20036;-68
2022/04/26 04:52:47;;;;;;;12.57;7.60;;;;;;;8.45;100.00;96258.69;4933787;29;20083;-66
2022/04/26 04:55:13;;;;;;;9.80;6.60;;;;;;;8.53;100.00;96260.38;4933778;29;20039;-68
2022/04/26 04:57:38;;;;;;;7.85;5.72;;;;;;;8.36;100.00;96261.63;4933389;29;20457;-66
2022/04/26 05:00:04;;;;;;;10.30;7.05;;;;;;;8.28;100.00;96260.69;4933442;29;20035;-67
2022/04/26 05:02:30;;;;;;;8.93;6.68;;;;;;;8.33;100.00;96265.84;4933452;29;20044;-68
2022/04/26 05:04:55;;;;;;;10.07;6.35;;;;;;;8.45;100.00;96272.34;4933814;29;20602;-69
2022/04/26 05:07:20;;;;;;;9.23;6.13;;;;;;;8.38;100.00;96271.00;4933425;29;20090;-67
2022/04/26 05:09:46;;;;;;;9.55;7.05;;;;;;;8.29;100.00;96273.19;4935264;29;20032;-70
2022/04/26 05:12:12;;;;;;;9.63;6.43;;;;;;;8.34;100.00;96272.88;4941167;29;20061;-65
2022/04/26 05:14:37;;;;;;;8.23;5.68;;;;;;;8.48;100.00;96275.13;4944514;29;20778;-65
2022/04/26 05:17:02;;;;;;;10.20;6.47;;;;;;;8.56;100.00;96262.38;4944311;29;20421;-67
2022/04/26 05:19:28;;;;;;;9.05;6.78;;;;;;;8.65;100.00;96268.38;4941657;29;20035;-68
2022/04/26 05:21:53;;;;;;;9.05;5.65;;;;;;;8.73;100.00;96261.91;4940001;29;20050;-68
2022/04/26 05:27:03;;;;;;;9.20;6.82;;;;;;;8.48;100.00;96258.75;4931169;29;20024;-68
2022/04/26 05:29:29;;;;;;;10.45;7.18;;;;;;;8.60;100.00;96263.22;4938699;29;20074;-68
2022/04/26 05:31:54;;;;;;;8.75;6.15;;;;;;;8.80;100.00;96270.22;4942974;29;20050;-69
2022/04/26 05:34:20;;;;;;;9.18;6.05;;;;;;;9.02;100.00;96269.72;4940046;29;20091;-68
2022/04/26 05:36:45;;;;;;;8.30;6.05;;;;;;;8.93;100.00;96267.25;4939365;29;20110;-68
2022/04/26 05:39:10;;;;;;;10.27;5.93;;;;;;;8.98;100.00;96272.41;4938126;29;20034;-69
2022/04/26 05:41:36;;;;;;;8.85;6.13;;;;;;;9.03;100.00;96263.91;4939682;29;20042;-66
2022/04/26 05:44:01;;;;;;;9.10;6.13;;;;;;;9.12;100.00;96267.16;4938444;29;20075;-67
2022/04/26 05:46:27;;;;;;;7.97;5.82;;;;;;;9.25;100.00;96266.97;4938874;29;20516;-71
2022/04/26 05:48:52;;;;;;;6.38;5.10;;;;;;;9.19;100.00;96261.03;4939826;29;20059;-68
2022/04/26 05:51:18;;;;;;;7.57;5.13;;;;;;;9.26;100.00;96258.41;4940263;29;20047;-69
2022/04/26 05:53:43;;;;;;;7.10;5.00;;;;;;;9.01;100.00;96254.53;4962312;28;20110;-69
2022/04/26 05:56:10;;;;;;;7.40;5.15;;;;;;;8.86;100.00;96257.03;4946905;28;20028;-69
2022/04/26 05:58:36;;;;;;;9.30;5.68;;;;;;;8.65;100.00;96254.72;4939384;29;20035;-70
2022/04/26 06:01:03;;;;;;;12.90;7.90;;;;;;;8.67;100.00;96252.41;4936096;29;20063;-70
2022/04/26 06:03:28;;;;;;;16.50;11.60;;;;;;;8.60;100.00;96255.03;4938705;29;20405;-68
2022/04/26 06:05:55;;;;;;;10.43;7.47;;;;;;;8.76;100.00;96246.72;4937384;29;20031;-68
2022/04/26 06:08:24;;;;;;;8.02;6.10;;;;;;;8.61;100.00;96251.16;4939473;29;20032;-69
2022/04/26 06:10:50;;;;;;;12.03;6.57;;;;;;;8.66;100.00;96252.78;4939396;29;20042;-68
2022/04/26 06:13:15;;;;;;;8.13;5.18;;;;;;;9.04;100.00;96256.50;4938175;29;20264;-69
2022/04/26 06:15:41;;;;;;;7.32;4.78;;;;;;;9.23;100.00;96258.34;4937748;29;20485;-69
2022/04/26 06:18:07;;;;;;;6.30;4.47;;;;;;;9.32;100.00;96264.34;4939149;29;20475;-70
2022/04/26 06:20:33;;;;;;;7.22;4.45;;;;;;;9.45;100.00;96271.13;4921689;29;20031;-69
2022/04/26 06:22:58;;;;;;;6.10;4.53;;;;;;;9.41;100.00;96280.47;4939374;29;20035;-69
2022/04/26 06:25:23;;;;;;;6.47;4.20;;;;;;;9.15;100.00;96274.63;4933740;29;20042;-69
2022/04/26 06:27:49;;;;;;;6.72;4.40;;;;;;;8.96;100.00;96286.44;4935901;29;20054;-69
2022/04/26 06:30:15;;;;;;;7.30;4.68;;;;;;;8.99;100.00;96284.94;4932933;29;20059;-69
2022/04/26 06:32:44;;;;;;;6.35;4.28;;;;;;;9.15;100.00;96287.50;4936157;29;20572;-68
2022/04/26 06:35:10;;;;;;;7.70;5.53;;;;;;;9.25;100.00;96288.81;4934699;29;20405;-68
2022/04/26 06:37:37;;;;;;;7.15;4.70;;;;;;;9.43;100.00;96278.94;4935321;29;20028;-68
2022/04/26 06:40:06;;;;;;;6.72;4.95;;;;;;;9.48;100.00;96288.75;4935658;29;20071;-68
2022/04/26 06:42:32;;;;;;;8.15;5.22;;;;;;;9.40;100.00;96300.75;4936204;29;20494;-68
2022/04/26 06:44:57;;;;;;;8.43;5.18;;;;;;;9.27;100.00;96305.63;4936032;29;20028;-68
2022/04/26 06:47:22;;;;;;;7.63;5.55;;;;;;;9.20;100.00;96314.53;4941935;29;20059;-68
2022/04/26 06:49:48;;;;;;;7.00;4.90;;;;;;;9.14;100.00;96313.25;4946585;29;20028;-68
2022/04/26 06:52:13;;;;;;;8.73;5.22;;;;;;;9.09;100.00;96319.03;4945247;29;20441;-68
2022/04/26 06:54:39;;;;;;;10.02;5.20;;;;;;;9.05;100.00;96320.91;4943668;29;20497;-69
2022/04/26 06:57:04;;;;;;;9.40;5.63;;;;;;;8.88;100.00;96314.78;4935253;29;20343;-68
2022/04/26 06:59:29;;;;;;;8.70;5.63;;;;;;;8.82;100.00;96316.25;4935798;29;20032;-68
2022/04/26 07:01:55;;;;;;;6.82;4.60;;;;;;;8.64;100.00;96318.66;4935522;29;20040;-68
2022/04/26 07:04:21;;;;;;;5.15;3.88;;;;;;;8.45;100.00;96311.31;4935625;29;20032;-69
2022/04/26 07:06:47;;;;;;;6.63;4.10;;;;;;;8.41;100.00;96313.94;4934785;29;20115;-68
2022/04/26 07:09:13;;;;;;;9.27;4.65;;;;;;;8.47;100.00;96302.78;4932504;29;20031;-69
2022/04/26 07:11:41;;;;;;;7.93;4.82;;;;;;;8.38;100.00;96305.69;4935267;29;20502;-68
2022/04/26 07:14:06;;;;;;;6.53;4.57;;;;;;;8.39;100.00;96305.34;4934720;29;20035;-68
2022/04/26 07:16:32;;;;;;;7.53;3.90;;;;;;;8.29;100.00;96305.13;4934322;29;20035;-68
2022/04/26 07:18:57;;;;;;;5.97;4.20;;;;;;;8.40;100.00;96298.72;4935244;29;20027;-68
2022/04/26 07:21:22;;;;;;;5.95;3.97;;;;;;;8.44;100.00;96309.72;4933613;29;20119;-68
2022/04/26 07:23:48;;;;;;;7.60;3.97;;;;;;;8.36;100.00;96321.66;4937530;29;20046;-69
2022/04/26 07:26:14;;;;;;;5.57;3.80;;;;;;;8.33;100.00;96320.41;4947418;29;20416;-68
2022/04/26 07:28:39;;;;;;;6.43;3.97;;;;;;;8.29;100.00;96329.69;4932686;29;20036;-68
2022/04/26 07:31:05;;;;;;;5.63;3.78;;;;;;;8.20;100.00;96340.81;4929791;29;20484;-69
2022/04/26 07:36:15;;;;;;;5.90;4.03;;;;;;;8.01;100.00;96363.41;4936921;28;20035;-69
2022/04/26 07:38:41;;;;;;;9.18;4.80;;;;;;;7.92;100.00;96371.81;4940936;29;20071;-70
2022/04/26 07:41:07;;;;;;;6.78;3.97;;;;;;;7.81;100.00;96379.78;4937785;29;20114;-70
2022/04/26 07:43:33;;;;;;;6.00;3.53;;;;;;;7.83;100.00;96382.94;4922811;28;20047;-69
2022/04/26 07:45:59;;;;;;;4.25;3.03;;;;;;;7.77;100.00;96387.06;4942746;29;20125;-69
2022/04/26 07:48:27;;;;;;;13.15;4.50;;;;;;;7.68;100.00;96399.34;4939038;29;20564;-68
2022/04/26 07:50:52;;;;;;;4.50;2.90;;;;;;;7.63;100.00;96406.66;4940914;29;20123;-68
2022/04/26 07:53:18;;;;;;;6.25;2.70;;;;;;;7.57;100.00;96410.00;4935435;29;20134;-68
2022/04/26 07:55:43;;;;;;;4.80;2.47;;;;;;;7.44;100.00;96415.53;4942611;29;20062;-68
2022/04/26 07:58:10;;;;;;;5.88;3.03;;;;;;;7.33;100.00;96414.50;4919134;29;20051;-68
2022/04/26 08:00:36;;;;;;;5.53;3.00;;;;;;;7.37;100.00;96412.63;4938688;29;20058;-67
2022/04/26 08:03:02;;;;;;;5.88;3.30;;;;;;;7.30;100.00;96422.59;4936262;29;20404;-68
2022/04/26 08:05:29;;;;;;;5.68;3.40;;;;;;;7.35;100.00;96419.59;4938976;29;20523;-69
2022/04/26 08:07:55;;;;;;;8.82;4.30;;;;;;;7.46;100.00;96421.41;4943781;29;20393;-69
2022/04/26 08:10:20;;;;;;;6.05;3.80;;;;;;;7.47;100.00;96422.19;4920619;29;20051;-69
2022/04/26 08:12:45;;;;;;;7.55;3.88;;;;;;;7.48;100.00;96429.25;4926258;29;20045;-68
2022/04/26 08:15:13;;;;;;;6.55;3.83;;;;;;;7.43;100.00;96432.22;4937250;29;20043;-69
2022/04/26 08:17:39;;;;;;;9.52;3.90;;;;;;;7.35;100.00;96450.34;4934050;29;20078;-68
2022/04/26 08:20:10;;;;;;;7.90;4.20;;;;;;;7.11;100.00;96448.56;4938065;29;20035;-65
2022/04/26 08:22:37;;;;;;;5.57;3.42;;;;;;;7.14;100.00;96449.81;4942279;29;20493;-68
2022/04/26 08:27:47;;;;;;;7.47;3.92;;;;;;;7.16;100.00;96472.81;4941846;29;20039;-69
2022/04/26 08:30:12;;;;;;;5.10;3.70;;;;;;;7.17;100.00;96484.53;4935422;29;20401;-69
2022/04/26 08:32:43;;;;;;;6.68;3.72;;;;;;;7.11;100.00;96489.41;4944819;29;20134;-68
2022/04/26 08:35:11;;;;;;;7.78;3.97;;;;;;;7.05;100.00;96499.00;4939913;29;20042;-68
2022/04/26 08:37:37;;;;;;;7.82;4.70;;;;;;;7.05;100.00;96507.94;4926543;29;20134;-71
2022/04/26 08:40:05;;;;;;;11.20;6.18;;;;;;;7.05;100.00;96518.84;4924220;29;20404;-68
2022/04/26 08:42:35;;;;;;;9.40;5.25;;;;;;;7.03;100.00;96521.13;4942338;29;20043;-71
2022/04/26 08:45:00;;;;;;;8.90;4.47;;;;;;;7.08;100.00;96526.31;4936232;29;20425;-69
2022/04/26 08:52:56;;;;;;;5.45;3.95;;;;;;;6.96;100.00;96533.75;4941995;29;20070;-69
2022/04/26 08:55:22;;;;;;;9.70;4.47;;;;;;;6.99;100.00;96542.03;4948158;29;20046;-66
2022/04/26 08:57:47;;;;;;;6.70;4.10;;;;;;;7.01;100.00;96538.94;4927376;29;20199;-68
2022/04/26 09:00:13;;;;;;;7.03;4.40;;;;;;;6.97;100.00;96532.59;4936159;29;20485;-68
2022/04/26 09:02:39;;;;;;;6.22;4.40;;;;;;;6.96;100.00;96537.25;4908547;29;20046;-69
2022/04/26 09:05:16;;;;;;;8.45;4.50;;;;;;;6.97;100.00;96533.41;4937709;29;20039;-66
2022/04/26 09:07:45;;;;;;;19.23;8.98;;;;;;;7.00;100.00;96545.53;4940622;29;20050;-68
2022/04/26 09:10:19;;;;;;;11.60;6.82;;;;;;;7.10;100.00;96553.22;4937260;29;20056;-69
2022/04/26 09:13:09;;;;;;;6.93;4.30;;;;;;;7.30;100.00;96556.06;4941855;29;20097;-68
2022/04/26 09:15:39;;;;;;;12.77;5.63;;;;;;;7.38;100.00;96558.63;4940995;29;20059;-69
2022/04/26 09:18:21;;;;;;;7.55;5.22;;;;;;;7.39;100.00;96553.97;4945926;29;20102;-68
2022/04/26 09:20:52;;;;;;;8.70;5.50;;;;;;;7.62;100.00;96565.09;4950984;29;20078;-70
2022/04/26 09:23:23;;;;;;;8.68;5.78;;;;;;;7.49;100.00;96556.19;4945946;29;20062;-69
2022/04/26 09:25:52;;;;;;;7.95;5.65;;;;;;;7.35;100.00;96564.78;4948362;29;20051;-69
2022/04/26 09:28:21;;;;;;;8.40;6.13;;;;;;;7.49;100.00;96563.56;4936226;28;20050;-69
2022/04/26 09:30:47;;;;;;;8.63;5.43;;;;;;;7.57;100.00;96565.34;4941829;29;20059;-69
2022/04/26 09:33:30;;;;;;;10.75;5.80;;;;;;;7.62;100.00;96563.13;4936998;29;20039;-67
2022/04/26 09:36:10;;;;;;;8.40;5.32;;;;;;;7.87;100.00;96571.16;4941499;29;20051;-69
2022/04/26 09:38:37;;;;;;;8.32;5.53;;;;;;;7.90;100.00;96581.34;4941073;29;20134;-69
2022/04/26 09:41:13;;;;;;;9.30;5.55;;;;;;;7.91;100.00;96577.50;4939235;29;20042;-66
2022/04/26 09:43:38;;;;;;;8.98;5.45;;;;;;;8.02;100.00;96592.19;4941378;29;20058;-69
2022/04/26 09:46:04;;;;;;;7.80;5.20;;;;;;;7.98;100.00;96590.53;4936694;29;20043;-66
2022/04/26 09:48:38;;;;;;;9.10;5.28;;;;;;;8.26;100.00;96581.44;4941372;29;20159;-69
2022/04/26 09:51:08;;;;;;;8.50;5.15;;;;;;;8.30;100.00;96587.75;4938269;29;20051;-66
2022/04/26 09:53:34;;;;;;;;;;;;;;;8.29;100.00;96583.44;4942430;29;20122;-68
2022/04/26 09:56:01;;;;;;;7.32;3.78;;;;;;;8.30;100.00;96576.84;4941650;29;19914;-70
2022/04/26 09:58:28;;;;;;;7.72;4.65;;;;;;;8.06;100.00;96586.81;4936115;28;20043;-70
2022/04/26 10:00:56;;;;;;;7.47;4.20;;;;;;;8.01;100.00;96592.53;4943467;29;20050;-68
2022/04/26 10:03:29;;;;;;;5.03;3.65;;;;;;;7.99;100.00;96592.09;4938961;29;20612;-70
2022/04/26 10:06:16;;;;;;;5.65;3.90;;;;;;;7.97;100.00;96594.38;4944468;29;20043;-69
2022/04/26 10:08:42;;;;;;;7.38;4.07;;;;;;;7.99;100.00;96592.88;4944228;29;20497;-69
2022/04/26 10:11:07;;;;;;;5.75;3.85;;;;;;;8.03;100.00;96599.22;4939802;29;20054;-69
2022/04/26 10:13:39;;;;;;;6.03;3.95;;;;;;;7.96;100.00;96590.88;4944191;29;20087;-69
2022/04/26 10:16:12;;;;;;;6.30;3.78;;;;;;;8.10;100.00;96598.59;4929607;29;20565;-66
2022/04/26 10:18:47;;;;;;;5.53;4.15;;;;;;;8.31;100.00;96600.25;4935561;29;20095;-70
2022/04/26 10:21:35;;;;;;;6.82;3.55;;;;;;;8.50;100.00;96608.53;4936345;29;20050;-70
2022/04/26 10:24:02;;;;;;;5.40;3.20;;;;;;;8.35;100.00;96601.13;4945051;29;20047;-70
2022/04/26 10:26:29;;;;;;;4.50;3.38;;;;;;;8.45;100.00;96597.09;4939769;29;20138;-70
2022/04/26 10:29:00;;;;;;;6.35;4.45;;;;;;;8.49;100.00;96608.91;4926955;29;20515;-70
2022/04/26 10:31:35;;;;;;;5.63;3.78;;;;;;;8.20;100.00;96625.34;4931354;29;20520;-68
2022/04/26 10:34:14;;;;;;;6.30;3.95;;;;;;;8.32;100.00;96642.75;4926768;29;20036;-69
2022/04/26 10:36:40;;;;;;;4.90;3.25;;;;;;;8.31;100.00;96643.91;4925179;29;20099;-68
2022/04/26 10:39:05;;;;;;;5.20;3.38;;;;;;;8.51;100.00;96644.81;4924575;29;20036;-67
2022/04/26 10:41:37;;;;;;;5.10;3.70;;;;;;;8.44;100.00;96641.91;4936772;29;20575;-69
2022/04/26 10:44:19;;;;;;;4.00;3.03;;;;;;;8.44;100.00;96650.09;4921846;29;20043;-66
2022/04/26 10:47:05;;;;;;;4.78;3.00;;;;;;;8.33;100.00;96653.31;4945137;29;20035;-69
2022/04/26 10:49:40;;;;;;;6.53;3.38;;;;;;;8.64;100.00;96664.59;4943884;29;20055;-69
2022/04/26 10:52:10;;;;;;;4.65;3.30;;;;;;;8.83;100.00;96650.22;4922887;29;20131;-70
2022/04/26 10:55:05;;;;;;;;;;;;;;;8.70;100.00;96644.09;4946152;29;20074;-69
2022/04/26 10:57:31;;;;;;;6.72;3.60;;;;;;;9.02;100.00;96650.25;4925866;29;19918;-70
2022/04/26 11:00:02;;;;;;;5.95;3.10;;;;;;;8.96;100.00;96646.22;4927470;29;20500;-69
2022/04/26 11:02:31;;;;;;;5.38;3.60;;;;;;;9.02;100.00;96649.44;4924781;29;20039;-71
2022/04/26 11:04:57;;;;;;;6.33;3.60;;;;;;;9.37;100.00;96642.00;4948562;29;20523;-67
2022/04/26 11:07:26;;;;;;;4.85;3.30;;;;;;;9.33;98.60;96632.94;4940142;29;20082;-68
2022/04/26 11:09:53;;;;;;;6.18;3.90;;;;;;;9.14;100.00;96652.06;4947739;28;20062;-69
2022/04/26 11:12:36;;;;;;;4.63;3.28;;;;;;;9.22;100.00;96651.06;4950289;29;20051;-67
2022/04/26 11:15:10;;;;;;;6.20;3.13;;;;;;;9.38;100.00;96643.59;4950856;29;20054;-68
2022/04/26 11:17:36;;;;;;;4.80;3.35;;;;;;;9.56;98.91;96640.41;4951855;29;20043;-68
2022/04/26 11:20:10;;;;;;;5.85;2.60;;;;;;;9.79;92.26;96643.16;4942526;29;20496;-66
2022/04/26 11:22:49;;;;;;;3.72;2.55;;;;;;;9.80;94.57;96633.03;4944124;29;20496;-70
2022/04/26 11:28:05;;;;;;;4.47;2.85;;;;;;;10.12;92.58;96648.06;4940940;29;20062;-69
2022/04/26 11:30:41;;;;;;;5.18;2.88;;;;;;;10.05;89.59;96644.44;4949563;29;20074;-68
2022/04/26 11:33:11;;;;;;;3.88;2.40;;;;;;;10.29;89.53;96646.00;4941211;29;20107;-70
2022/04/26 11:35:38;;;;;;;3.60;2.67;;;;;;;10.22;88.00;96643.16;4944481;29;20054;-70
2022/04/26 11:38:15;;;;;;;2.50;2.03;;;;;;;10.11;90.04;96635.53;4941757;29;20141;-65
2022/04/26 11:40:42;;;;;;;3.63;2.20;;;;;;;10.21;90.63;96636.88;4946060;29;20138;-69
2022/04/26 11:43:09;;;;;;;3.28;2.00;;;;;;;10.93;87.14;96631.72;4941423;29;20043;-70
2022/04/26 11:45:35;;;;;;;2.75;1.92;;;;;;;10.82;84.54;96637.06;4945347;29;20105;-68
2022/04/26 11:48:00;;;;;;;3.08;2.20;;;;;;;10.63;85.17;96643.44;4945916;29;20050;-69
2022/04/26 11:50:28;;;;;;;2.88;1.70;;;;;;;10.62;82.90;96639.88;4941639;29;20397;-70
2022/04/26 11:53:00;;;;;;;2.25;1.80;;;;;;;9.87;89.35;96633.16;4945527;29;20439;-68
2022/04/26 11:55:27;;;;;;;3.78;2.40;;;;;;;9.59;86.37;96650.63;4939473;29;20278;-68
2022/04/26 11:58:05;;;;;;;2.67;1.95;;;;;;;9.72;91.77;96654.78;4946445;29;20110;-68
2022/04/26 12:00:30;;;;;;;2.78;2.00;;;;;;;9.80;88.79;96655.72;4926654;29;20039;-69
2022/04/26 12:02:55;;;;;;;3.08;2.13;;;;;;;10.12;89.03;96652.75;4926992;29;20043;-69
2022/04/26 12:05:22;;;;;;;3.03;2.03;;;;;;;10.12;87.92;96653.53;4921587;29;20503;-68
2022/04/26 12:07:48;;;;;;;3.17;2.05;;;;;;;10.20;88.31;96642.72;4943394;29;20053;-68
2022/04/26 12:10:33;;;;;;;3.90;2.28;;;;;;;9.94;89.59;96644.25;4939137;29;20528;-68
2022/04/26 12:13:02;;;;;;;2.58;1.70;;;;;;;10.02;89.60;96648.66;4911838;29;20043;-69
2022/04/26 12:15:31;;;;;;;3.65;2.10;;;;;;;9.65;91.29;96632.78;4941365;29;20062;-69
2022/04/26 12:18:08;;;;;;;3.08;2.05;;;;;;;9.68;88.34;96639.47;4945249;29;20043;-68
2022/04/26 12:20:39;;;;;;;3.30;2.10;;;;;;;9.64;89.42;96633.13;4944457;29;20198;-68
2022/04/26 12:23:05;;;;;;;3.47;2.10;;;;;;;9.77;93.93;96635.31;4943932;28;20074;-66
2022/04/26 12:25:33;;;;;;;3.35;2.40;;;;;;;9.76;93.23;96639.22;4931333;29;20051;-69
2022/04/26 12:28:08;;;;;;;2.83;2.05;;;;;;;9.93;90.01;96640.69;4960634;29;20046;-69
2022/04/26 12:30:37;;;;;;;2.70;1.90;;;;;;;10.01;89.16;96641.63;4926629;29;20043;-69
2022/04/26 12:33:05;;;;;;;4.27;1.73;;;;;;;10.26;88.78;96641.25;4943219;29;20516;-68
2022/04/26 12:35:31;;;;;;;2.65;1.90;;;;;;;10.30;84.74;96634.69;4943775;29;20369;-69
2022/04/26 12:38:07;;;;;;;3.78;1.80;;;;;;;10.28;86.70;96636.19;4943938;29;20066;-67
2022/04/26 12:40:34;;;;;;;4.10;1.85;;;;;;;10.07;86.47;96629.22;4927189;29;20044;-69
2022/04/26 12:43:00;;;;;;;4.03;2.05;;;;;;;10.30;86.53;96623.75;4943687;29;20043;-69
2022/04/26 12:45:25;;;;;;;4.68;2.40;;;;;;;10.44;85.89;96619.66;4938705;29;20617;-70
2022/04/26 12:50:52;;;;;;;4.43;2.78;;;;;;;10.56;84.71;96618.69;4943680;29;20114;-68
2022/04/26 12:53:22;;;;;;;3.78;2.63;;;;;;;10.72;83.31;96622.06;4938659;29;20058;-69
2022/04/26 12:55:47;;;;;;;4.22;2.30;;;;;;;10.83;86.25;96625.72;4947858;29;20062;-69
2022/04/26 12:58:16;;;;;;;5.18;2.90;;;;;;;10.88;84.18;96630.09;4939231;29;20050;-68
2022/04/26 13:00:53;;;;;;;6.05;2.85;;;;;;;10.75;81.34;96628.72;4942434;29;20043;-69
2022/04/26 13:03:21;;;;;;;4.53;2.65;;;;;;;11.06;82.50;96630.34;4938847;29;20054;-70
2022/04/26 13:05:51;;;;;;;12.85;7.50;;;;;;;11.42;82.17;96633.53;4942108;29;20038;-69
2022/04/26 13:08:19;;;;;;;4.75;2.58;;;;;;;11.67;80.88;96636.56;4937880;29;20039;-69
2022/04/26 13:10:47;;;;;;;4.28;2.70;;;;;;;11.79;78.34;96636.31;4942739;29;20071;-70
2022/04/26 13:13:12;;;;;;;5.03;2.85;;;;;;;12.24;78.13;96617.13;4938004;29;20106;-69
2022/04/26 13:15:38;;;;;;;4.75;2.95;;;;;;;11.58;76.89;96625.88;4924695;29;20055;-69
2022/04/26 13:18:05;;;;;;;3.97;2.72;;;;;;;12.43;75.40;96624.38;4922454;29;20054;-66
2022/04/26 13:20:32;;;;;;;4.07;2.60;;;;;;;12.90;72.84;96630.19;4942944;29;20044;-70
2022/04/26 13:22:57;;;;;;;3.42;2.35;;;;;;;12.92;73.50;96630.59;4943379;29;20130;-70
2022/04/26 13:25:22;;;;;;;4.80;2.90;;;;;;;12.73;73.39;96624.19;4937239;29;20495;-70
2022/04/26 13:27:48;;;;;;;5.32;3.15;;;;;;;13.07;73.28;96623.19;4942674;29;20138;-68
2022/04/26 13:30:15;;;;;;;3.67;2.40;;;;;;;13.16;70.43;96634.63;4938920;29;20145;-68
2022/04/26 13:32:40;;;;;;;4.20;2.90;;;;;;;12.76;71.43;96636.38;4926129;29;20039;-68
2022/04/26 13:35:06;;;;;;;5.50;2.55;;;;;;;12.51;73.96;96636.97;4941435;29;20915;-68
2022/04/26 13:37:32;;;;;;;3.80;2.50;;;;;;;12.39;74.81;96640.81;4946423;29;20051;-70
2022/04/26 13:40:00;;;;;;;3.83;2.63;;;;;;;12.62;77.29;96684.56;4946625;29;20051;-69
2022/04/26 13:42:27;;;;;;;5.28;2.45;;;;;;;11.33;73.38;96691.41;4941370;29;20047;-71
2022/04/26 13:44:54;;;;;;;2.60;1.70;;;;;;;10.25;77.95;96692.47;4929258;29;20043;-69
2022/04/26 13:47:20;;;;;;;4.20;1.90;;;;;;;9.56;84.08;96695.88;4940070;29;20126;-69
2022/04/26 13:49:45;;;;;;;4.18;2.17;;;;;;;9.00;92.34;96693.50;4913724;29;20504;-69
2022/04/26 13:52:11;;;;;;;5.53;2.20;;;;;;;8.94;100.00;96698.47;4940830;29;20043;-67
2022/04/26 13:54:37;;;;;;;4.03;2.65;;;;;;;8.68;100.00;96698.22;4929215;29;20052;-71
2022/04/26 13:57:05;;;;;;;4.60;2.70;;;;;;;8.57;100.00;96692.53;4943880;29;20098;-65
2022/04/26 13:59:31;;;;;;;3.90;3.08;;;;;;;8.70;100.00;96694.03;4929831;29;20047;-68
2022/04/26 14:01:56;;;;;;;11.73;3.38;;;;;;;8.77;100.00;96693.41;4947068;29;20039;-70
2022/04/26 14:04:21;;;;;;;4.00;2.83;;;;;;;8.92;100.00;96689.06;4941006;29;20059;-68
2022/04/26 14:06:48;;;;;;;8.25;3.08;;;;;;;8.83;100.00;96689.25;4945251;29;20075;-70
2022/04/26 14:09:15;;;;;;;3.90;2.80;;;;;;;8.72;100.00;96686.25;4924840;29;20552;-68
2022/04/26 14:11:41;;;;;;;6.13;2.60;;;;;;;8.84;100.00;96688.09;4951469;29;20141;-69
2022/04/26 14:22:20;;;;;;;3.40;2.20;;;;;;;9.22;100.00;96680.31;4945561;29;20062;-69
2022/04/26 14:24:47;;;;;;;4.90;3.05;;;;;;;9.18;100.00;96675.59;4949715;29;20043;-69
2022/04/26 14:27:13;;;;;;;8.43;5.93;;;;;;;9.04;100.00;96674.47;4949169;29;20047;-69
2022/04/26 14:29:38;;;;;;;6.40;3.45;;;;;;;8.66;100.00;96693.16;4950385;29;20218;-69
2022/04/26 14:32:04;;;;;;;9.45;4.40;;;;;;;8.69;100.00;96700.63;4945269;29;20083;-67
2022/04/26 14:34:30;;;;;;;5.75;4.00;;;;;;;8.54;100.00;96701.44;4930130;29;20090;-69
2022/04/26 14:36:58;;;;;;;7.13;4.05;;;;;;;8.40;100.00;96688.97;4946444;29;20039;-70
2022/04/26 14:39:24;;;;;;;6.97;4.20;;;;;;;8.39;100.00;96700.25;4923186;29;20055;-68
2022/04/26 14:41:49;;;;;;;11.30;5.40;;;;;;;8.75;100.00;96701.13;4945942;29;20040;-69
2022/04/26 14:44:15;;;;;;;6.70;3.90;;;;;;;8.90;100.00;96707.75;4941285;29;20046;-69
2022/04/26 14:46:40;;;;;;;7.53;4.38;;;;;;;9.23;100.00;96704.56;4930393;29;20043;-69
2022/04/26 14:49:06;;;;;;;5.45;3.72;;;;;;;9.35;100.00;96698.19;4942082;29;20424;-69
2022/04/26 14:51:32;;;;;;;7.22;4.30;;;;;;;9.44;100.00;96695.25;4944917;29;20051;-68
2022/04/26 14:53:58;;;;;;;8.40;4.30;;;;;;;9.29;100.00;96696.88;4928217;29;20054;-69
2022/04/26 14:56:23;;;;;;;6.85;3.15;;;;;;;9.18;100.00;96688.44;4944548;29;20492;-70
2022/04/26 14:58:50;;;;;;;4.30;3.40;;;;;;;9.03;100.00;96683.81;4946267;29;20388;-67
2022/04/26 15:01:16;;;;;;;6.55;3.72;;;;;;;8.86;100.00;96676.81;4940518;29;20081;-70
2022/04/26 15:03:43;;;;;;;4.10;3.10;;;;;;;8.55;100.00;96662.06;4945104;29;20039;-69
2022/04/26 15:06:09;;;;;;;4.43;2.50;;;;;;;8.22;100.00;96658.53;4939795;29;20113;-67
2022/04/26 15:11:18;;;;;;;4.45;2.80;;;;;;;8.49;100.00;96652.56;4940357;29;20066;-69
2022/04/26 15:16:40;;;;;;;5.55;2.65;;;;;;;8.66;100.00;96665.84;4941402;29;20066;-70
2022/04/26 15:19:10;;;;;;;4.40;3.40;;;;;;;8.57;100.00;96662.50;4939479;29;20368;-70
2022/04/26 15:21:37;;;;;;;3.80;2.83;;;;;;;8.65;100.00;96675.19;4944076;29;20051;-70
2022/04/26 15:24:03;;;;;;;7.18;3.72;;;;;;;8.77;100.00;96674.28;4942507;29;20050;-68
2022/04/26 15:26:29;;;;;;;7.68;4.03;;;;;;;9.05;100.00;96670.59;4925892;29;20493;-69
2022/04/26 15:28:55;;;;;;;7.50;3.92;;;;;;;9.42;100.00;96675.66;4927619;29;20058;-70
2022/04/26 15:31:21;;;;;;;4.38;3.20;;;;;;;9.53;100.00;96672.00;4949408;29;20047;-70
2022/04/26 15:33:48;;;;;;;5.07;3.15;;;;;;;9.66;100.00;96667.16;4956204;29;20400;-70
2022/04/26 15:36:15;;;;;;;8.52;4.13;;;;;;;9.81;100.00;96668.22;4949573;29;20051;-69
2022/04/26 15:38:41;;;;;;;6.75;3.25;;;;;;;9.92;100.00;96671.97;4945864;29;20079;-69
2022/04/26 15:41:06;;;;;;;5.45;3.80;;;;;;;10.05;100.00;96666.31;4939282;29;20047;-69
2022/04/26 15:43:36;;;;;;;5.57;3.33;;;;;;;9.53;100.00;96676.69;4944664;29;20106;-68
2022/04/26 15:46:04;;;;;;;5.53;2.88;;;;;;;9.66;100.00;96675.38;4943825;29;20051;-71